sensor_id;sensor_type;location;lat;lon;timestamp;pressure;altitude;pressure_sealevel;temperature;humidity
72525;BME280;60547;48.502;8.996;2022-08-21T00:00:29;98089.47;;;14.44;87.41
72525;BME280;60547;48.502;8.996;2022-08-21T00:03:02;98099.75;;;14.47;86.84
72525;BME280;60547;48.502;8.996;2022-08-21T00:05:30;98096.94;;;14.47;86.36
72525;BME280;60547;48.502;8.996;2022-08-21T00:07:56;98097.53;;;14.42;86.83
72525;BME280;60547;48.502;8.996;2022-08-21T00:10:22;98084.09;;;14.37;86.32
72525;BME280;60547;48.502;8.996;2022-08-21T00:12:48;98086.91;;;14.37;86.69
72525;BME280;60547;48.502;8.996;2022-08-21T00:15:20;98077.09;;;14.33;86.09
72525;BME280;60547;48.502;8.996;2022-08-21T00:17:45;98087.19;;;14.30;86.06
72525;BME280;60547;48.502;8.996;2022-08-21T00:20:12;98087.50;;;14.32;86.13
72525;BME280;60547;48.502;8.996;2022-08-21T00:22:38;98066.81;;;14.30;86.77
72525;BME280;60547;48.502;8.996;2022-08-21T00:25:05;98077.59;;;14.40;86.48
72525;BME280;60547;48.502;8.996;2022-08-21T00:27:31;98079.28;;;14.38;86.45
72525;BME280;60547;48.502;8.996;2022-08-21T00:29:56;98081.31;;;14.37;86.49
72525;BME280;60547;48.502;8.996;2022-08-21T00:32:23;98085.09;;;14.43;85.94
72525;BME280;60547;48.502;8.996;2022-08-21T00:34:49;98073.50;;;14.32;86.46
72525;BME280;60547;48.502;8.996;2022-08-21T00:37:15;98076.31;;;14.32;86.77
72525;BME280;60547;48.502;8.996;2022-08-21T00:39:40;98076.44;;;14.29;86.74
72525;BME280;60547;48.502;8.996;2022-08-21T00:42:06;98076.38;;;14.19;86.58
72525;BME280;60547;48.502;8.996;2022-08-21T00:44:32;98076.56;;;14.03;87.27
72525;BME280;60547;48.502;8.996;2022-08-21T00:46:57;98094.81;;;14.08;87.33
72525;BME280;60547;48.502;8.996;2022-08-21T00:49:23;98074.69;;;14.00;87.38
72525;BME280;60547;48.502;8.996;2022-08-21T00:51:50;98084.84;;;14.07;86.98
72525;BME280;60547;48.502;8.996;2022-08-21T00:54:21;98076.78;;;14.09;86.92
72525;BME280;60547;48.502;8.996;2022-08-21T00:56:51;98079.91;;;14.11;87.13
72525;BME280;60547;48.502;8.996;2022-08-21T00:59:19;98068.06;;;14.07;86.99
72525;BME280;60547;48.502;8.996;2022-08-21T01:01:45;98069.41;;;14.02;86.74
72525;BME280;60547;48.502;8.996;2022-08-21T01:04:11;98067.09;;;14.01;87.21
72525;BME280;60547;48.502;8.996;2022-08-21T01:06:37;98052.13;;;13.95;86.92
72525;BME280;60547;48.502;8.996;2022-08-21T01:09:03;98062.84;;;13.96;86.43
72525;BME280;60547;48.502;8.996;2022-08-21T01:11:28;98059.53;;;13.88;86.22
72525;BME280;60547;48.502;8.996;2022-08-21T01:13:54;98065.91;;;13.89;86.79
72525;BME280;60547;48.502;8.996;2022-08-21T01:16:20;98067.28;;;13.84;86.89
72525;BME280;60547;48.502;8.996;2022-08-21T01:18:47;98052.97;;;13.82;87.08
72525;BME280;60547;48.502;8.996;2022-08-21T01:21:15;98050.03;;;13.86;87.51
72525;BME280;60547;48.502;8.996;2022-08-21T01:23:44;98060.44;;;13.85;86.66
72525;BME280;60547;48.502;8.996;2022-08-21T01:26:12;98060.13;;;13.83;86.09
72525;BME280;60547;48.502;8.996;2022-08-21T01:28:49;98061.47;;;13.79;87.01
72525;BME280;60547;48.502;8.996;2022-08-21T01:31:20;98055.75;;;13.82;87.08
72525;BME280;60547;48.502;8.996;2022-08-21T01:33:47;98066.28;;;13.78;87.22
72525;BME280;60547;48.502;8.996;2022-08-21T01:36:12;98048.19;;;13.70;86.88
72525;BME280;60547;48.502;8.996;2022-08-21T01:38:38;98061.59;;;13.75;87.48
72525;BME280;60547;48.502;8.996;2022-08-21T01:41:03;98054.38;;;13.65;87.04
72525;BME280;60547;48.502;8.996;2022-08-21T01:43:29;98046.56;;;13.60;87.08
72525;BME280;60547;48.502;8.996;2022-08-21T01:45:54;98051.25;;;13.63;87.39
72525;BME280;60547;48.502;8.996;2022-08-21T01:48:19;98045.22;;;13.65;87.68
72525;BME280;60547;48.502;8.996;2022-08-21T01:50:45;98030.38;;;13.55;87.64
72525;BME280;60547;48.502;8.996;2022-08-21T01:53:10;98046.25;;;13.58;87.07
72525;BME280;60547;48.502;8.996;2022-08-21T01:55:36;98050.59;;;13.59;86.92
72525;BME280;60547;48.502;8.996;2022-08-21T01:58:01;98056.19;;;13.59;86.94
72525;BME280;60547;48.502;8.996;2022-08-21T02:00:27;98050.28;;;13.57;87.40
72525;BME280;60547;48.502;8.996;2022-08-21T02:02:52;98038.56;;;13.49;87.23
72525;BME280;60547;48.502;8.996;2022-08-21T02:05:18;98040.91;;;13.51;87.23
72525;BME280;60547;48.502;8.996;2022-08-21T02:07:47;98047.94;;;13.55;86.78
72525;BME280;60547;48.502;8.996;2022-08-21T02:10:19;98040.25;;;13.47;86.79
72525;BME280;60547;48.502;8.996;2022-08-21T02:12:45;98029.97;;;13.44;87.52
72525;BME280;60547;48.502;8.996;2022-08-21T02:15:11;98035.88;;;13.46;87.71
72525;BME280;60547;48.502;8.996;2022-08-21T02:17:42;98038.69;;;13.46;87.16
72525;BME280;60547;48.502;8.996;2022-08-21T02:20:10;98041.16;;;13.44;87.12
72525;BME280;60547;48.502;8.996;2022-08-21T02:22:36;98028.78;;;13.32;87.53
72525;BME280;60547;48.502;8.996;2022-08-21T02:25:02;98028.41;;;13.43;87.78
72525;BME280;60547;48.502;8.996;2022-08-21T02:27:28;98028.41;;;13.43;87.61
72525;BME280;60547;48.502;8.996;2022-08-21T02:29:56;98038.34;;;13.44;87.74
72525;BME280;60547;48.502;8.996;2022-08-21T02:32:21;98038.34;;;13.44;87.22
72525;BME280;60547;48.502;8.996;2022-08-21T02:34:47;98031.78;;;13.38;87.60
72525;BME280;60547;48.502;8.996;2022-08-21T02:37:12;98028.00;;;13.32;87.72
72525;BME280;60547;48.502;8.996;2022-08-21T02:39:37;98025.78;;;13.27;88.15
72525;BME280;60547;48.502;8.996;2022-08-21T02:42:05;98028.91;;;13.29;88.15
72525;BME280;60547;48.502;8.996;2022-08-21T02:44:31;98033.25;;;13.30;87.49
72525;BME280;60547;48.502;8.996;2022-08-21T02:46:56;98036.94;;;13.27;86.88
72525;BME280;60547;48.502;8.996;2022-08-21T02:49:21;98023.66;;;13.18;87.36
72525;BME280;60547;48.502;8.996;2022-08-21T02:51:51;98014.16;;;13.15;87.81
72525;BME280;60547;48.502;8.996;2022-08-21T02:54:17;98012.72;;;13.11;87.18
72525;BME280;60547;48.502;8.996;2022-08-21T02:56:42;98029.25;;;13.18;87.30
72525;BME280;60547;48.502;8.996;2022-08-21T02:59:07;98023.44;;;13.12;86.62
72525;BME280;60547;48.502;8.996;2022-08-21T03:01:33;98035.06;;;13.23;86.56
72525;BME280;60547;48.502;8.996;2022-08-21T03:03:58;98037.84;;;13.23;86.15
72525;BME280;60547;48.502;8.996;2022-08-21T03:06:24;98039.09;;;13.22;86.29
72525;BME280;60547;48.502;8.996;2022-08-21T03:08:49;98032.84;;;13.18;86.03
72525;BME280;60547;48.502;8.996;2022-08-21T03:11:16;98033.38;;;13.13;85.96
72525;BME280;60547;48.502;8.996;2022-08-21T03:13:43;98031.81;;;13.12;86.51
72525;BME280;60547;48.502;8.996;2022-08-21T03:16:08;98019.88;;;12.99;87.19
72525;BME280;60547;48.502;8.996;2022-08-21T03:18:34;98023.47;;;13.00;87.12
72525;BME280;60547;48.502;8.996;2022-08-21T03:21:00;98027.03;;;13.00;86.97
72525;BME280;60547;48.502;8.996;2022-08-21T03:23:25;98033.06;;;12.99;87.05
72525;BME280;60547;48.502;8.996;2022-08-21T03:25:51;98029.50;;;12.98;87.33
72525;BME280;60547;48.502;8.996;2022-08-21T03:28:20;98025.38;;;12.90;87.28
72525;BME280;60547;48.502;8.996;2022-08-21T03:30:48;98030.19;;;12.89;86.62
72525;BME280;60547;48.502;8.996;2022-08-21T03:33:16;98030.28;;;12.86;86.88
72525;BME280;60547;48.502;8.996;2022-08-21T03:35:48;98028.72;;;12.85;87.04
72525;BME280;60547;48.502;8.996;2022-08-21T03:38:17;98028.97;;;12.78;86.80
72525;BME280;60547;48.502;8.996;2022-08-21T03:40:43;98022.72;;;12.74;86.91
72525;BME280;60547;48.502;8.996;2022-08-21T03:43:09;98025.72;;;12.79;87.54
72525;BME280;60547;48.502;8.996;2022-08-21T03:45:35;98041.38;;;12.77;87.66
72525;BME280;60547;48.502;8.996;2022-08-21T03:48:02;98037.69;;;12.80;87.68
72525;BME280;60547;48.502;8.996;2022-08-21T03:50:30;98033.22;;;12.70;87.26
72525;BME280;60547;48.502;8.996;2022-08-21T03:52:56;98045.03;;;12.74;86.89
72525;BME280;60547;48.502;8.996;2022-08-21T03:55:23;98020.59;;;12.65;87.07
72525;BME280;60547;48.502;8.996;2022-08-21T03:57:49;98035.66;;;12.68;86.76
72525;BME280;60547;48.502;8.996;2022-08-21T04:00:15;98028.19;;;12.65;87.33
72525;BME280;60547;48.502;8.996;2022-08-21T04:02:41;98031.66;;;12.69;87.55
72525;BME280;60547;48.502;8.996;2022-08-21T04:05:08;98029.75;;;12.66;87.21
72525;BME280;60547;48.502;8.996;2022-08-21T04:07:34;98045.38;;;12.63;87.85
72525;BME280;60547;48.502;8.996;2022-08-21T04:09:59;98045.16;;;12.70;87.85
72525;BME280;60547;48.502;8.996;2022-08-21T04:12:25;98029.19;;;12.58;87.41
72525;BME280;60547;48.502;8.996;2022-08-21T04:14:50;98042.94;;;12.65;87.30
72525;BME280;60547;48.502;8.996;2022-08-21T04:17:18;98039.34;;;12.65;87.29
72525;BME280;60547;48.502;8.996;2022-08-21T04:19:44;98035.22;;;12.56;87.08
72525;BME280;60547;48.502;8.996;2022-08-21T04:22:09;98023.06;;;12.50;86.95
72525;BME280;60547;48.502;8.996;2022-08-21T04:24:35;98046.38;;;12.56;87.51
72525;BME280;60547;48.502;8.996;2022-08-21T04:27:00;98045.50;;;12.59;87.76
72525;BME280;60547;48.502;8.996;2022-08-21T04:29:26;98050.41;;;12.55;87.49
72525;BME280;60547;48.502;8.996;2022-08-21T04:31:51;98051.53;;;12.58;87.46
72525;BME280;60547;48.502;8.996;2022-08-21T04:34:17;98066.28;;;12.58;86.62
72525;BME280;60547;48.502;8.996;2022-08-21T04:36:43;98060.47;;;12.53;87.12
72525;BME280;60547;48.502;8.996;2022-08-21T04:39:09;98066.16;;;12.49;87.63
72525;BME280;60547;48.502;8.996;2022-08-21T04:41:34;98060.56;;;12.49;87.85
72525;BME280;60547;48.502;8.996;2022-08-21T04:44:01;98069.63;;;12.53;87.61
72525;BME280;60547;48.502;8.996;2022-08-21T04:46:26;98071.50;;;12.56;87.29
72525;BME280;60547;48.502;8.996;2022-08-21T04:48:52;98074.41;;;12.53;87.37
72525;BME280;60547;48.502;8.996;2022-08-21T04:51:19;98073.19;;;12.54;86.88
72525;BME280;60547;48.502;8.996;2022-08-21T04:54:09;98071.63;;;12.53;87.63
72525;BME280;60547;48.502;8.996;2022-08-21T04:56:42;98070.28;;;12.57;88.01
72525;BME280;60547;48.502;8.996;2022-08-21T04:59:23;98070.41;;;12.54;87.40
72525;BME280;60547;48.502;8.996;2022-08-21T05:01:51;98075.19;;;12.53;87.29
72525;BME280;60547;48.502;8.996;2022-08-21T05:04:22;98081.66;;;12.50;87.41
72525;BME280;60547;48.502;8.996;2022-08-21T05:06:50;98082.56;;;12.47;87.65
72525;BME280;60547;48.502;8.996;2022-08-21T05:09:19;98075.53;;;12.43;88.27
72525;BME280;60547;48.502;8.996;2022-08-21T05:11:45;98086.38;;;12.53;88.33
72525;BME280;60547;48.502;8.996;2022-08-21T05:14:12;98085.81;;;12.58;87.44
72525;BME280;60547;48.502;8.996;2022-08-21T05:16:38;98080.56;;;12.60;87.79
72525;BME280;60547;48.502;8.996;2022-08-21T05:19:07;98086.03;;;12.64;87.66
72525;BME280;60547;48.502;8.996;2022-08-21T05:21:39;98090.72;;;12.67;87.82
72525;BME280;60547;48.502;8.996;2022-08-21T05:24:05;98092.19;;;12.72;87.82
72525;BME280;60547;48.502;8.996;2022-08-21T05:26:31;98089.28;;;12.75;87.81
72525;BME280;60547;48.502;8.996;2022-08-21T05:28:57;98093.19;;;12.78;87.29
72525;BME280;60547;48.502;8.996;2022-08-21T05:31:22;98096.75;;;12.78;87.97
72525;BME280;60547;48.502;8.996;2022-08-21T05:33:48;98091.28;;;12.75;87.69
72525;BME280;60547;48.502;8.996;2022-08-21T05:36:13;98095.19;;;12.77;87.66
72525;BME280;60547;48.502;8.996;2022-08-21T05:38:39;98089.38;;;12.72;87.92
72525;BME280;60547;48.502;8.996;2022-08-21T05:41:04;98071.28;;;12.76;87.78
72525;BME280;60547;48.502;8.996;2022-08-21T05:43:30;98087.50;;;12.94;87.69
72525;BME280;60547;48.502;8.996;2022-08-21T05:45:58;98091.84;;;12.95;87.06
72525;BME280;60547;48.502;8.996;2022-08-21T05:48:24;98095.97;;;13.03;87.24
72525;BME280;60547;48.502;8.996;2022-08-21T05:50:51;98100.31;;;13.04;86.83
72525;BME280;60547;48.502;8.996;2022-08-21T05:53:18;98107.69;;;13.11;86.64
72525;BME280;60547;48.502;8.996;2022-08-21T05:55:44;98111.72;;;13.10;87.03
72525;BME280;60547;48.502;8.996;2022-08-21T05:58:11;98110.63;;;13.20;86.78
72525;BME280;60547;48.502;8.996;2022-08-21T06:00:37;98100.22;;;13.20;86.62
72525;BME280;60547;48.502;8.996;2022-08-21T06:03:02;98112.97;;;13.21;87.26
72525;BME280;60547;48.502;8.996;2022-08-21T06:05:28;98104.91;;;13.36;87.02
72525;BME280;60547;48.502;8.996;2022-08-21T06:07:53;98105.69;;;13.71;85.69
72525;BME280;60547;48.502;8.996;2022-08-21T06:10:19;98092.47;;;14.06;83.22
72525;BME280;60547;48.502;8.996;2022-08-21T06:12:45;98098.06;;;14.50;81.60
72525;BME280;60547;48.502;8.996;2022-08-21T06:15:11;98107.88;;;14.85;81.05
72525;BME280;60547;48.502;8.996;2022-08-21T06:17:36;98102.41;;;14.82;80.48
72525;BME280;60547;48.502;8.996;2022-08-21T06:20:02;98069.16;;;14.93;79.57
72525;BME280;60547;48.502;8.996;2022-08-21T06:22:28;98095.44;;;15.36;79.01
72525;BME280;60547;48.502;8.996;2022-08-21T06:24:54;98087.66;;;15.49;78.91
72525;BME280;60547;48.502;8.996;2022-08-21T06:27:19;98096.91;;;15.59;78.14
72525;BME280;60547;48.502;8.996;2022-08-21T06:29:44;98097.84;;;15.65;78.61
72525;BME280;60547;48.502;8.996;2022-08-21T06:32:11;98099.56;;;15.80;78.37
72525;BME280;60547;48.502;8.996;2022-08-21T06:34:39;98087.41;;;15.83;78.55
72525;BME280;60547;48.502;8.996;2022-08-21T06:37:05;98104.25;;;15.93;79.11
72525;BME280;60547;48.502;8.996;2022-08-21T06:39:31;98101.44;;;16.02;78.30
72525;BME280;60547;48.502;8.996;2022-08-21T06:41:57;98089.75;;;16.03;78.95
72525;BME280;60547;48.502;8.996;2022-08-21T06:44:22;98096.28;;;16.09;78.29
72525;BME280;60547;48.502;8.996;2022-08-21T06:46:48;98090.84;;;16.06;78.49
72525;BME280;60547;48.502;8.996;2022-08-21T06:49:13;98089.91;;;16.09;78.02
72525;BME280;60547;48.502;8.996;2022-08-21T06:51:39;98089.28;;;16.05;79.03
72525;BME280;60547;48.502;8.996;2022-08-21T06:54:05;98074.78;;;16.06;78.74
72525;BME280;60547;48.502;8.996;2022-08-21T06:56:31;98066.50;;;16.03;79.57
72525;BME280;60547;48.502;8.996;2022-08-21T06:58:58;98079.75;;;16.11;79.17
72525;BME280;60547;48.502;8.996;2022-08-21T07:01:26;98083.53;;;15.90;79.56
72525;BME280;60547;48.502;8.996;2022-08-21T07:03:52;98081.81;;;15.83;80.34
72525;BME280;60547;48.502;8.996;2022-08-21T07:06:18;98076.34;;;15.89;80.83
72525;BME280;60547;48.502;8.996;2022-08-21T07:08:43;98067.47;;;15.91;80.66
72525;BME280;60547;48.502;8.996;2022-08-21T07:11:12;98071.66;;;16.04;80.61
72525;BME280;60547;48.502;8.996;2022-08-21T07:13:39;98080.06;;;16.04;81.03
72525;BME280;60547;48.502;8.996;2022-08-21T07:16:05;98079.28;;;16.13;80.53
72525;BME280;60547;48.502;8.996;2022-08-21T07:18:31;98075.84;;;16.18;80.08
72525;BME280;60547;48.502;8.996;2022-08-21T07:20:57;98070.25;;;16.18;79.33
72525;BME280;60547;48.502;8.996;2022-08-21T07:23:27;98077.69;;;16.30;79.55
72525;BME280;60547;48.502;8.996;2022-08-21T07:25:54;98063.47;;;16.43;79.61
72525;BME280;60547;48.502;8.996;2022-08-21T07:28:19;98071.09;;;16.52;79.14
72525;BME280;60547;48.502;8.996;2022-08-21T07:30:46;98070.75;;;16.59;79.01
72525;BME280;60547;48.502;8.996;2022-08-21T07:33:15;98070.75;;;16.59;78.59
72525;BME280;60547;48.502;8.996;2022-08-21T07:35:41;98073.56;;;16.68;77.75
72525;BME280;60547;48.502;8.996;2022-08-21T07:38:06;98059.50;;;16.77;78.91
72525;BME280;60547;48.502;8.996;2022-08-21T07:40:32;98063.50;;;16.85;78.05
72525;BME280;60547;48.502;8.996;2022-08-21T07:42:58;98064.16;;;16.80;78.22
72525;BME280;60547;48.502;8.996;2022-08-21T07:45:23;98066.13;;;16.98;78.33
72525;BME280;60547;48.502;8.996;2022-08-21T07:47:52;98051.53;;;16.75;77.35
72525;BME280;60547;48.502;8.996;2022-08-21T07:50:18;98061.91;;;16.93;77.11
72525;BME280;60547;48.502;8.996;2022-08-21T07:52:43;98067.50;;;17.02;76.90
72525;BME280;60547;48.502;8.996;2022-08-21T07:55:11;98070.88;;;17.16;77.09
72525;BME280;60547;48.502;8.996;2022-08-21T07:57:38;98060.53;;;17.22;76.76
72525;BME280;60547;48.502;8.996;2022-08-21T08:00:06;98065.13;;;17.34;76.85
72525;BME280;60547;48.502;8.996;2022-08-21T08:02:32;98063.69;;;17.38;76.58
72525;BME280;60547;48.502;8.996;2022-08-21T08:04:59;98056.56;;;17.52;76.91
72525;BME280;60547;48.502;8.996;2022-08-21T08:07:26;98054.66;;;17.58;75.58
72525;BME280;60547;48.502;8.996;2022-08-21T08:09:51;98059.13;;;17.65;76.24
72525;BME280;60547;48.502;8.996;2022-08-21T08:12:17;98058.81;;;17.72;75.04
72525;BME280;60547;48.502;8.996;2022-08-21T08:14:43;98061.72;;;17.78;74.97
72525;BME280;60547;48.502;8.996;2022-08-21T08:17:09;98054.53;;;17.77;74.55
72525;BME280;60547;48.502;8.996;2022-08-21T08:19:35;98046.28;;;17.73;76.17
72525;BME280;60547;48.502;8.996;2022-08-21T08:22:00;98046.03;;;17.86;75.02
72525;BME280;60547;48.502;8.996;2022-08-21T08:24:25;98042.78;;;17.78;72.67
72525;BME280;60547;48.502;8.996;2022-08-21T08:26:51;98046.22;;;17.97;73.17
72525;BME280;60547;48.502;8.996;2022-08-21T08:29:16;98040.50;;;18.06;70.36
72525;BME280;60547;48.502;8.996;2022-08-21T08:31:42;98033.91;;;18.09;71.74
72525;BME280;60547;48.502;8.996;2022-08-21T08:34:07;98033.81;;;18.18;70.86
72525;BME280;60547;48.502;8.996;2022-08-21T08:36:35;98032.66;;;18.25;71.10
72525;BME280;60547;48.502;8.996;2022-08-21T08:39:04;98018.28;;;18.37;69.45
72525;BME280;60547;48.502;8.996;2022-08-21T08:41:31;98025.06;;;18.46;70.41
72525;BME280;60547;48.502;8.996;2022-08-21T08:44:04;98023.72;;;18.56;68.75
72525;BME280;60547;48.502;8.996;2022-08-21T08:46:35;98016.94;;;18.62;69.01
72525;BME280;60547;48.502;8.996;2022-08-21T08:49:09;98009.03;;;18.66;68.64
72525;BME280;60547;48.502;8.996;2022-08-21T08:51:43;98014.66;;;18.81;69.03
72525;BME280;60547;48.502;8.996;2022-08-21T08:54:20;98000.16;;;18.88;66.96
72525;BME280;60547;48.502;8.996;2022-08-21T08:56:51;98007.78;;;19.02;67.68
72525;BME280;60547;48.502;8.996;2022-08-21T08:59:25;98004.97;;;19.02;68.05
72525;BME280;60547;48.502;8.996;2022-08-21T09:01:52;98001.31;;;19.17;66.30
72525;BME280;60547;48.502;8.996;2022-08-21T09:04:23;97999.22;;;19.32;66.59
72525;BME280;60547;48.502;8.996;2022-08-21T09:09:48;97998.63;;;19.48;64.21
72525;BME280;60547;48.502;8.996;2022-08-21T09:15:08;97990.47;;;19.71;61.91
72525;BME280;60547;48.502;8.996;2022-08-21T09:25:42;97978.41;;;20.22;58.99
72525;BME280;60547;48.502;8.996;2022-08-21T09:28:11;97977.41;;;20.25;57.99
72525;BME280;60547;48.502;8.996;2022-08-21T09:30:39;97972.50;;;20.51;59.38
72525;BME280;60547;48.502;8.996;2022-08-21T09:33:06;97964.53;;;20.50;58.82
72525;BME280;60547;48.502;8.996;2022-08-21T09:35:31;97968.13;;;20.50;57.76
72525;BME280;60547;48.502;8.996;2022-08-21T09:38:01;97964.91;;;20.69;56.85
72525;BME280;60547;48.502;8.996;2022-08-21T09:40:33;97973.97;;;20.78;57.66
72525;BME280;60547;48.502;8.996;2022-08-21T09:43:25;97942.59;;;20.76;55.32
72525;BME280;60547;48.502;8.996;2022-08-21T09:46:09;97965.91;;;21.03;54.74
72525;BME280;60547;48.502;8.996;2022-08-21T09:51:09;97958.59;;;21.27;54.59
72525;BME280;60547;48.502;8.996;2022-08-21T09:53:38;97955.81;;;21.44;53.42
72525;BME280;60547;48.502;8.996;2022-08-21T09:56:35;97957.41;;;21.56;49.82
72525;BME280;60547;48.502;8.996;2022-08-21T09:59:28;97956.44;;;21.82;49.44
72525;BME280;60547;48.502;8.996;2022-08-21T10:01:56;97947.19;;;21.87;45.01
72525;BME280;60547;48.502;8.996;2022-08-21T10:04:28;97943.13;;;22.10;46.96
72525;BME280;60547;48.502;8.996;2022-08-21T10:07:08;97947.25;;;22.20;50.55
72525;BME280;60547;48.502;8.996;2022-08-21T10:09:34;97944.41;;;22.32;46.34
72525;BME280;60547;48.502;8.996;2022-08-21T10:12:22;97944.66;;;22.50;47.85
72525;BME280;60547;48.502;8.996;2022-08-21T10:15:02;97935.13;;;22.65;45.92
72525;BME280;60547;48.502;8.996;2022-08-21T10:18:07;97941.03;;;22.72;46.74
72525;BME280;60547;48.502;8.996;2022-08-21T10:31:56;97913.06;;;23.21;43.56
72525;BME280;60547;48.502;8.996;2022-08-21T10:34:33;97913.41;;;23.59;44.78
72525;BME280;60547;48.502;8.996;2022-08-21T10:39:43;97910.72;;;23.77;41.35
72525;BME280;60547;48.502;8.996;2022-08-21T10:47:48;97906.03;;;24.51;40.37
72525;BME280;60547;48.502;8.996;2022-08-21T10:50:28;97896.06;;;24.63;40.17
72525;BME280;60547;48.502;8.996;2022-08-21T10:56:02;97898.56;;;24.72;35.38
72525;BME280;60547;48.502;8.996;2022-08-21T10:58:40;97894.91;;;25.02;37.86
72525;BME280;60547;48.502;8.996;2022-08-21T11:01:23;97897.84;;;24.91;37.23
72525;BME280;60547;48.502;8.996;2022-08-21T11:04:07;97889.31;;;25.15;40.13
72525;BME280;60547;48.502;8.996;2022-08-21T11:06:37;97885.63;;;25.58;38.18
72525;BME280;60547;48.502;8.996;2022-08-21T11:09:11;97888.13;;;25.67;37.55
72525;BME280;60547;48.502;8.996;2022-08-21T11:11:52;97881.66;;;25.66;36.90
72525;BME280;60547;48.502;8.996;2022-08-21T11:17:12;97871.78;;;25.86;34.34
72525;BME280;60547;48.502;8.996;2022-08-21T11:19:54;97866.97;;;25.94;32.50
72525;BME280;60547;48.502;8.996;2022-08-21T11:25:26;97879.91;;;26.59;34.60
72525;BME280;60547;48.502;8.996;2022-08-21T11:27:54;97868.72;;;26.75;36.79
72525;BME280;60547;48.502;8.996;2022-08-21T11:30:24;97877.72;;;26.79;34.04
72525;BME280;60547;48.502;8.996;2022-08-21T11:33:05;97865.66;;;26.86;32.85
72525;BME280;60547;48.502;8.996;2022-08-21T11:35:46;97868.72;;;26.88;32.12
72525;BME280;60547;48.502;8.996;2022-08-21T11:38:41;97860.59;;;26.79;31.75
72525;BME280;60547;48.502;8.996;2022-08-21T11:43:46;97860.06;;;27.20;29.87
72525;BME280;60547;48.502;8.996;2022-08-21T11:56:58;97846.66;;;27.62;31.58
72525;BME280;60547;48.502;8.996;2022-08-21T11:59:35;97852.56;;;27.77;32.01
72525;BME280;60547;48.502;8.996;2022-08-21T12:02:02;97851.66;;;27.35;31.37
72525;BME280;60547;48.502;8.996;2022-08-21T12:04:32;97850.44;;;27.44;33.18
72525;BME280;60547;48.502;8.996;2022-08-21T12:07:17;97848.47;;;27.39;31.14
72525;BME280;60547;48.502;8.996;2022-08-21T12:09:56;97843.06;;;27.82;31.68
72525;BME280;60547;48.502;8.996;2022-08-21T12:12:26;97840.63;;;27.86;31.31
72525;BME280;60547;48.502;8.996;2022-08-21T12:17:38;97830.94;;;27.89;34.21
72525;BME280;60547;48.502;8.996;2022-08-21T12:23:03;97823.97;;;28.19;32.05
72525;BME280;60547;48.502;8.996;2022-08-21T12:25:42;97818.78;;;28.38;31.45
72525;BME280;60547;48.502;8.996;2022-08-21T12:28:12;97816.13;;;28.40;30.36
72525;BME280;60547;48.502;8.996;2022-08-21T12:30:41;97813.41;;;28.14;30.48
72525;BME280;60547;48.502;8.996;2022-08-21T12:33:30;97810.75;;;28.16;30.60
72525;BME280;60547;48.502;8.996;2022-08-21T12:36:18;97813.78;;;28.59;30.88
72525;BME280;60547;48.502;8.996;2022-08-21T12:39:11;97809.81;;;28.62;30.90
72525;BME280;60547;48.502;8.996;2022-08-21T12:41:47;97795.38;;;28.47;29.04
72525;BME280;60547;48.502;8.996;2022-08-21T12:44:28;97806.38;;;28.64;30.99
72525;BME280;60547;48.502;8.996;2022-08-21T12:46:59;97802.53;;;28.90;31.95
72525;BME280;60547;48.502;8.996;2022-08-21T12:49:33;97800.69;;;28.72;30.14
72525;BME280;60547;48.502;8.996;2022-08-21T12:52:14;97809.28;;;29.00;31.08
72525;BME280;60547;48.502;8.996;2022-08-21T12:54:43;97810.94;;;28.59;29.96
72525;BME280;60547;48.502;8.996;2022-08-21T12:57:22;97807.75;;;28.99;31.53
72525;BME280;60547;48.502;8.996;2022-08-21T12:59:53;97802.03;;;28.99;30.47
72525;BME280;60547;48.502;8.996;2022-08-21T13:02:23;97795.63;;;29.21;29.95
72525;BME280;60547;48.502;8.996;2022-08-21T13:04:49;97793.84;;;29.11;29.20
72525;BME280;60547;48.502;8.996;2022-08-21T13:07:22;97794.22;;;29.07;29.08
72525;BME280;60547;48.502;8.996;2022-08-21T13:09:54;97800.31;;;29.04;30.03
72525;BME280;60547;48.502;8.996;2022-08-21T13:12:21;97793.06;;;29.03;30.12
72525;BME280;60547;48.502;8.996;2022-08-21T13:14:48;97782.28;;;29.32;29.15
72525;BME280;60547;48.502;8.996;2022-08-21T13:17:21;97795.63;;;29.21;30.13
72525;BME280;60547;48.502;8.996;2022-08-21T13:20:03;97789.16;;;29.29;29.69
72525;BME280;60547;48.502;8.996;2022-08-21T13:22:29;97792.56;;;29.19;28.86
72525;BME280;60547;48.502;8.996;2022-08-21T13:24:55;97792.22;;;28.87;30.13
72525;BME280;60547;48.502;8.996;2022-08-21T13:27:25;97786.81;;;29.19;31.63
72525;BME280;60547;48.502;8.996;2022-08-21T13:30:05;97788.31;;;29.56;28.28
72525;BME280;60547;48.502;8.996;2022-08-21T13:32:33;97786.69;;;29.33;26.90
72525;BME280;60547;48.502;8.996;2022-08-21T13:35:18;97773.53;;;29.45;28.65
72525;BME280;60547;48.502;8.996;2022-08-21T13:37:45;97776.66;;;29.70;28.67
72525;BME280;60547;48.502;8.996;2022-08-21T13:40:15;97767.38;;;29.41;28.51
72525;BME280;60547;48.502;8.996;2022-08-21T13:42:42;97776.66;;;29.62;28.19
72525;BME280;60547;48.502;8.996;2022-08-21T13:45:14;97764.59;;;29.64;27.05
72525;BME280;60547;48.502;8.996;2022-08-21T13:47:39;97772.16;;;28.87;26.54
72525;BME280;60547;48.502;8.996;2022-08-21T13:50:05;97763.16;;;29.26;29.00
72525;BME280;60547;48.502;8.996;2022-08-21T13:52:32;97762.50;;;29.64;28.17
72525;BME280;60547;48.502;8.996;2022-08-21T13:55:09;97760.75;;;29.53;26.20
72525;BME280;60547;48.502;8.996;2022-08-21T13:57:36;97756.22;;;29.14;27.17
72525;BME280;60547;48.502;8.996;2022-08-21T14:00:18;97764.75;;;28.99;26.12
72525;BME280;60547;48.502;8.996;2022-08-21T14:02:49;97755.09;;;29.17;27.43
72525;BME280;60547;48.502;8.996;2022-08-21T14:05:27;97765.38;;;29.64;29.20
72525;BME280;60547;48.502;8.996;2022-08-21T14:08:12;97759.25;;;29.75;26.81
72525;BME280;60547;48.502;8.996;2022-08-21T14:10:45;97757.53;;;29.65;25.17
72525;BME280;60547;48.502;8.996;2022-08-21T14:13:41;97761.94;;;29.07;25.91